createdAt,value
2022-08-25T00:00:12.532Z,6.90
2022-08-25T00:02:39.541Z,7.23
2022-08-25T00:05:08.081Z,6.60
2022-08-25T00:07:37.079Z,6.80
2022-08-25T00:10:07.247Z,8.00
2022-08-25T00:12:34.361Z,7.23
2022-08-25T00:15:01.341Z,6.97
2022-08-25T00:17:28.717Z,6.37
2022-08-25T00:19:55.734Z,7.70
2022-08-25T00:22:22.803Z,6.40
2022-08-25T00:24:49.780Z,7.10
2022-08-25T00:27:17.200Z,6.77
2022-08-25T00:29:44.319Z,7.40
2022-08-25T00:32:11.386Z,7.37
2022-08-25T00:34:38.830Z,6.90
2022-08-25T00:37:09.424Z,7.83
2022-08-25T00:39:38.294Z,7.83
2022-08-25T00:42:07.457Z,7.47
2022-08-25T00:44:43.938Z,6.80
2022-08-25T00:47:11.644Z,8.00
2022-08-25T00:49:52.650Z,8.27
2022-08-25T00:52:30.267Z,7.00
2022-08-25T00:55:08.447Z,7.30
2022-08-25T00:58:21.083Z,8.47
2022-08-25T01:00:52.293Z,7.67
2022-08-25T01:03:20.855Z,7.40
2022-08-25T01:05:52.338Z,7.93
2022-08-25T01:08:22.777Z,8.20
2022-08-25T01:10:51.172Z,8.27
2022-08-25T01:13:27.131Z,8.53
2022-08-25T01:15:56.458Z,8.27
2022-08-25T01:18:24.502Z,7.57
2022-08-25T01:20:56.896Z,7.13
2022-08-25T01:23:25.401Z,8.40
2022-08-25T01:26:04.164Z,8.20
2022-08-25T01:28:32.269Z,8.93
2022-08-25T01:30:59.586Z,8.37
2022-08-25T01:33:26.834Z,8.10
2022-08-25T01:35:54.848Z,7.80
2022-08-25T01:38:22.999Z,7.63
2022-08-25T01:40:50.452Z,9.07
2022-08-25T01:43:31.984Z,8.50
2022-08-25T01:45:59.265Z,8.50
2022-08-25T01:48:26.765Z,8.53
2022-08-25T01:50:53.974Z,7.90
2022-08-25T01:53:29.740Z,8.80
2022-08-25T01:56:09.685Z,8.43
2022-08-25T01:58:41.607Z,7.67
2022-08-25T02:01:23.232Z,8.73
2022-08-25T02:03:53.549Z,9.03
2022-08-25T02:06:32.335Z,9.00
2022-08-25T02:09:07.728Z,9.47
2022-08-25T02:11:38.946Z,8.40
2022-08-25T02:14:07.790Z,9.37
2022-08-25T02:16:37.088Z,9.67
2022-08-25T02:19:11.912Z,9.17
2022-08-25T02:21:39.553Z,10.80
2022-08-25T02:24:08.172Z,9.33
2022-08-25T02:26:36.534Z,9.17
2022-08-25T02:29:06.167Z,8.60
2022-08-25T02:31:34.704Z,9.60
2022-08-25T02:34:02.403Z,9.77
2022-08-25T02:36:32.209Z,10.37
2022-08-25T02:39:00.525Z,10.13
2022-08-25T02:41:30.946Z,9.30
2022-08-25T02:44:00.998Z,9.00
2022-08-25T02:46:29.162Z,9.20
2022-08-25T02:48:56.234Z,8.93
2022-08-25T02:51:25.476Z,9.27
2022-08-25T02:53:53.574Z,9.13
2022-08-25T02:56:20.802Z,9.10
2022-08-25T02:58:48.317Z,9.20
2022-08-25T03:01:16.964Z,9.10
2022-08-25T03:03:47.062Z,9.47
2022-08-25T03:06:18.242Z,9.13
2022-08-25T03:08:45.529Z,9.33
2022-08-25T03:11:12.659Z,10.10
2022-08-25T03:13:40.097Z,9.90
2022-08-25T03:16:10.903Z,10.03
2022-08-25T03:18:40.769Z,10.00
2022-08-25T03:21:08.308Z,10.10
2022-08-25T03:23:35.581Z,10.13
2022-08-25T03:26:21.260Z,10.17
2022-08-25T03:28:48.327Z,9.13
2022-08-25T03:31:15.485Z,9.43
2022-08-25T03:33:43.039Z,10.13
2022-08-25T03:36:14.636Z,10.43
2022-08-25T03:38:42.247Z,12.53
2022-08-25T03:41:23.243Z,9.60
2022-08-25T03:43:51.016Z,9.50
2022-08-25T03:46:31.797Z,9.67
2022-08-25T03:49:02.264Z,11.87
2022-08-25T03:51:47.421Z,10.90
2022-08-25T03:54:20.000Z,9.30
2022-08-25T03:56:47.108Z,10.63
2022-08-25T03:59:14.168Z,11.60
2022-08-25T04:01:44.383Z,9.90
2022-08-25T04:04:14.051Z,11.53
2022-08-25T04:06:43.489Z,10.83
2022-08-25T04:09:11.796Z,10.80
2022-08-25T04:11:39.469Z,11.20
2022-08-25T04:14:09.951Z,11.90
2022-08-25T04:16:43.345Z,11.10
2022-08-25T04:19:10.870Z,12.70
2022-08-25T04:21:40.610Z,11.43
2022-08-25T04:24:10.633Z,11.70
2022-08-25T04:26:43.809Z,13.03
2022-08-25T04:29:13.432Z,13.00
2022-08-25T04:31:43.807Z,11.50
2022-08-25T04:34:28.811Z,12.23
2022-08-25T04:37:03.764Z,11.90
2022-08-25T04:39:31.319Z,12.90
2022-08-25T04:42:00.765Z,11.80
2022-08-25T04:44:29.956Z,11.53
2022-08-25T04:46:57.618Z,13.27
2022-08-25T04:49:24.957Z,13.57
2022-08-25T04:51:51.996Z,14.73
2022-08-25T04:54:22.109Z,13.40
2022-08-25T04:56:54.457Z,13.40
2022-08-25T04:59:29.497Z,14.37
2022-08-25T05:02:02.372Z,14.30
2022-08-25T05:04:31.454Z,13.53
2022-08-25T05:06:59.652Z,15.37
2022-08-25T05:09:27.556Z,14.70
2022-08-25T05:11:55.128Z,14.93
2022-08-25T05:14:26.389Z,14.97
2022-08-25T05:16:55.476Z,15.57
2022-08-25T05:19:24.272Z,14.33
2022-08-25T05:21:52.436Z,13.50
2022-08-25T05:24:21.009Z,15.97
2022-08-25T05:26:48.233Z,15.17
2022-08-25T05:29:15.699Z,15.60
2022-08-25T05:31:49.569Z,15.60
2022-08-25T05:34:19.070Z,14.30
2022-08-25T05:36:47.076Z,15.00
2022-08-25T05:39:14.582Z,14.10
2022-08-25T05:41:41.630Z,14.40
2022-08-25T05:44:08.786Z,14.90
2022-08-25T05:46:36.040Z,16.53
2022-08-25T05:49:03.245Z,14.57
2022-08-25T05:51:30.401Z,15.20
2022-08-25T05:53:57.479Z,13.87
2022-08-25T05:56:24.581Z,15.97
2022-08-25T05:58:51.644Z,14.27
2022-08-25T06:01:48.744Z,15.63
2022-08-25T06:04:17.810Z,16.23
2022-08-25T06:06:44.947Z,17.17
2022-08-25T06:09:12.532Z,17.77
2022-08-25T06:11:40.881Z,16.97
2022-08-25T06:14:11.498Z,17.97
2022-08-25T06:16:40.310Z,17.73
2022-08-25T06:19:10.628Z,16.57
2022-08-25T06:21:41.402Z,17.50
2022-08-25T06:24:15.242Z,16.43
2022-08-25T06:26:44.201Z,18.20
2022-08-25T06:29:14.287Z,19.00
2022-08-25T06:31:42.637Z,15.93
2022-08-25T06:34:11.078Z,17.00
2022-08-25T06:36:38.608Z,21.07
2022-08-25T06:39:05.768Z,20.50
2022-08-25T06:41:36.982Z,20.67
2022-08-25T06:44:05.724Z,20.90
2022-08-25T06:46:36.383Z,20.90
2022-08-25T06:49:08.209Z,22.80
2022-08-25T06:51:36.430Z,21.90
2022-08-25T06:54:06.512Z,22.03
2022-08-25T06:56:34.327Z,23.03
2022-08-25T06:59:03.676Z,19.17
2022-08-25T07:01:32.263Z,19.90
2022-08-25T07:04:02.905Z,20.33
2022-08-25T07:06:35.399Z,19.80
2022-08-25T07:09:06.292Z,22.03
2022-08-25T07:11:34.459Z,19.50
2022-08-25T07:14:08.405Z,18.70
2022-08-25T07:16:36.586Z,18.47
2022-08-25T07:19:06.111Z,19.30
2022-08-25T07:21:39.056Z,19.37
2022-08-25T07:24:13.417Z,19.33
2022-08-25T07:26:43.578Z,18.30
2022-08-25T07:29:19.725Z,16.70
2022-08-25T07:31:47.278Z,18.50
2022-08-25T07:34:33.699Z,18.13
2022-08-25T07:37:04.465Z,18.13
2022-08-25T07:39:33.800Z,19.97
2022-08-25T07:42:01.052Z,18.40
2022-08-25T07:44:29.036Z,18.63
2022-08-25T07:46:56.735Z,17.83
2022-08-25T07:49:26.420Z,18.87
2022-08-25T07:52:05.250Z,16.50
2022-08-25T07:54:37.766Z,16.83
2022-08-25T07:57:08.137Z,15.70
2022-08-25T07:59:40.138Z,16.10
2022-08-25T08:02:17.878Z,16.87
2022-08-25T08:04:53.779Z,17.90
2022-08-25T08:07:43.122Z,16.47
2022-08-25T08:13:02.676Z,16.23
2022-08-25T08:15:30.288Z,15.57
2022-08-25T08:17:59.744Z,14.90
2022-08-25T08:20:27.280Z,14.60
2022-08-25T08:22:55.401Z,14.37
2022-08-25T08:25:26.685Z,13.50
2022-08-25T08:27:56.810Z,14.33
2022-08-25T08:30:26.244Z,14.87
2022-08-25T08:33:11.801Z,15.50
2022-08-25T08:35:43.091Z,14.93
2022-08-25T08:38:17.284Z,16.60
2022-08-25T08:41:40.194Z,16.87
2022-08-25T08:44:37.097Z,15.80
2022-08-25T08:47:10.714Z,15.50
2022-08-25T08:49:59.121Z,16.13
2022-08-25T08:52:40.857Z,15.27
2022-08-25T08:55:40.283Z,14.77
2022-08-25T08:58:18.801Z,14.63
2022-08-25T09:00:52.612Z,14.40
2022-08-25T09:03:41.550Z,14.00
2022-08-25T09:06:19.077Z,12.80
2022-08-25T09:08:46.569Z,11.07
2022-08-25T09:11:23.704Z,11.43
2022-08-25T09:14:10.896Z,10.13
2022-08-25T09:17:31.112Z,9.60
2022-08-25T09:20:25.237Z,8.40
2022-08-25T09:23:48.506Z,8.87
2022-08-25T09:27:05.872Z,9.13
2022-08-25T09:30:07.459Z,9.40
2022-08-25T09:32:48.676Z,8.80
2022-08-25T09:35:26.253Z,9.00
2022-08-25T09:38:11.253Z,9.27
2022-08-25T09:40:46.588Z,8.20
2022-08-25T09:43:32.183Z,8.00
2022-08-25T09:46:27.151Z,8.63
2022-08-25T09:49:16.790Z,7.30
2022-08-25T09:51:44.651Z,7.97
2022-08-25T09:54:17.980Z,7.67
2022-08-25T09:57:00.582Z,8.23
2022-08-25T09:59:35.714Z,7.50
2022-08-25T10:02:26.408Z,8.40
2022-08-25T10:04:54.579Z,9.07
2022-08-25T10:07:40.044Z,9.03
2022-08-25T10:10:32.407Z,8.23
2022-08-25T10:13:01.789Z,8.10
2022-08-25T10:15:36.964Z,9.03
2022-08-25T10:18:29.724Z,9.67
2022-08-25T10:21:15.955Z,8.97
2022-08-25T10:23:52.816Z,8.30
2022-08-25T10:26:41.552Z,6.17
2022-08-25T10:29:41.088Z,6.10
2022-08-25T10:32:40.393Z,6.63
2022-08-25T10:35:16.686Z,6.57
2022-08-25T10:38:21.699Z,5.80
2022-08-25T10:41:16.967Z,7.07
2022-08-25T10:44:34.081Z,6.40
2022-08-25T10:47:48.830Z,7.53
2022-08-25T10:50:33.956Z,6.80
2022-08-25T10:53:11.224Z,6.00
2022-08-25T10:55:55.288Z,6.13
2022-08-25T10:58:56.299Z,6.30
2022-08-25T11:01:45.553Z,5.90
2022-08-25T11:04:31.945Z,6.17
2022-08-25T11:07:34.951Z,5.07
2022-08-25T11:10:20.554Z,5.10
2022-08-25T11:12:57.123Z,5.60
2022-08-25T11:15:37.736Z,5.37
2022-08-25T11:18:14.021Z,5.37
2022-08-25T11:21:09.594Z,5.63
2022-08-25T11:23:59.205Z,6.10
2022-08-25T11:26:36.991Z,5.20
2022-08-25T11:29:17.152Z,6.27
2022-08-25T11:31:53.319Z,5.53
2022-08-25T11:34:22.261Z,6.27
2022-08-25T11:37:01.098Z,6.40
2022-08-25T11:39:52.287Z,5.97
2022-08-25T11:42:35.413Z,5.63
2022-08-25T11:45:35.285Z,6.67
2022-08-25T11:48:20.753Z,5.70
2022-08-25T11:51:27.583Z,6.10
2022-08-25T11:54:21.408Z,6.10
2022-08-25T11:57:04.328Z,6.40
2022-08-25T11:59:50.195Z,6.40
2022-08-25T12:02:37.868Z,6.73
2022-08-25T12:05:30.328Z,6.47
2022-08-25T12:08:22.341Z,7.50
2022-08-25T12:10:52.375Z,7.63
2022-08-25T12:13:39.236Z,7.17
2022-08-25T12:16:07.127Z,6.00
2022-08-25T12:18:34.087Z,6.50
2022-08-25T12:21:02.370Z,6.13
2022-08-25T12:24:11.513Z,5.87
2022-08-25T12:26:58.413Z,6.53
2022-08-25T12:29:43.723Z,6.10
2022-08-25T12:32:45.800Z,7.20
2022-08-25T12:35:31.333Z,6.10
2022-08-25T12:38:15.800Z,6.23
2022-08-25T12:40:42.957Z,7.10
2022-08-25T12:43:33.310Z,6.07
2022-08-25T12:46:20.454Z,6.80
2022-08-25T12:49:31.088Z,7.50
2022-08-25T12:52:22.000Z,6.83
2022-08-25T12:55:06.232Z,7.30
2022-08-25T12:57:47.606Z,7.10
2022-08-25T13:00:32.122Z,7.17
2022-08-25T13:03:24.451Z,6.00
2022-08-25T13:06:53.628Z,6.13
2022-08-25T13:09:58.825Z,5.70
2022-08-25T13:12:44.569Z,6.17
2022-08-25T13:15:47.033Z,5.77
2022-08-25T13:18:27.943Z,5.87
2022-08-25T13:21:37.116Z,6.37
2022-08-25T13:24:12.581Z,7.43
2022-08-25T13:26:47.200Z,5.97
2022-08-25T13:29:27.857Z,5.00
2022-08-25T13:32:09.614Z,5.37
2022-08-25T13:34:42.677Z,4.97
2022-08-25T13:37:29.710Z,5.43
2022-08-25T13:40:20.090Z,5.53
2022-08-25T13:42:57.462Z,5.27
2022-08-25T13:45:30.089Z,5.37
2022-08-25T13:47:59.658Z,5.50
2022-08-25T13:50:26.897Z,5.17
2022-08-25T13:53:14.330Z,5.93
2022-08-25T13:55:53.621Z,5.80
2022-08-25T13:58:39.353Z,6.47
2022-08-25T14:01:49.294Z,6.30
2022-08-25T14:04:50.585Z,5.50
2022-08-25T14:07:22.272Z,6.50
2022-08-25T14:10:07.929Z,5.50
2022-08-25T14:12:46.344Z,5.13
2022-08-25T14:15:22.313Z,5.00
2022-08-25T14:18:19.406Z,5.10
2022-08-25T14:20:51.977Z,5.40
2022-08-25T14:23:24.769Z,5.53
2022-08-25T14:25:54.056Z,5.77
2022-08-25T14:28:25.637Z,6.60
2022-08-25T14:31:11.078Z,5.20
2022-08-25T14:33:54.047Z,5.47
2022-08-25T14:36:21.177Z,6.00
2022-08-25T14:38:54.581Z,5.73
2022-08-25T14:41:24.172Z,6.27
2022-08-25T14:43:51.272Z,5.10
2022-08-25T14:46:25.867Z,5.77
2022-08-25T14:49:02.132Z,5.53
2022-08-25T14:51:36.187Z,5.80
2022-08-25T14:54:07.639Z,5.97
2022-08-25T14:56:37.712Z,5.60
2022-08-25T14:59:10.043Z,5.50
2022-08-25T15:01:37.433Z,6.80
2022-08-25T15:04:17.575Z,5.33
2022-08-25T15:06:45.851Z,5.93
2022-08-25T15:09:16.749Z,6.20
2022-08-25T15:11:51.104Z,5.27
2022-08-25T15:14:29.018Z,5.60
2022-08-25T15:17:01.741Z,6.30
2022-08-25T15:19:29.263Z,5.40
2022-08-25T15:21:58.072Z,4.63
2022-08-25T15:24:27.552Z,5.40
2022-08-25T15:27:01.104Z,7.13
2022-08-25T15:29:31.076Z,5.70
2022-08-25T15:32:00.352Z,4.40
2022-08-25T15:34:28.543Z,5.63
2022-08-25T15:36:57.975Z,4.87
2022-08-25T15:39:26.213Z,6.53
2022-08-25T15:41:53.375Z,5.50
2022-08-25T15:44:23.304Z,5.30
2022-08-25T15:46:52.216Z,5.07
2022-08-25T15:49:20.731Z,5.87
2022-08-25T15:51:55.096Z,5.40
2022-08-25T15:54:26.715Z,5.47
2022-08-25T15:56:55.864Z,5.80
2022-08-25T15:59:25.109Z,6.63
2022-08-25T16:01:53.645Z,5.37
2022-08-25T16:04:27.318Z,5.23
2022-08-25T16:06:55.634Z,6.37
2022-08-25T16:09:23.646Z,5.30
2022-08-25T16:11:56.770Z,6.23
2022-08-25T16:14:26.357Z,6.07
2022-08-25T16:16:58.550Z,7.10
2022-08-25T16:19:28.903Z,5.87
2022-08-25T16:21:57.274Z,5.80
2022-08-25T16:24:24.433Z,5.90
2022-08-25T16:26:52.385Z,5.60
2022-08-25T16:29:22.783Z,5.43
2022-08-25T16:31:53.271Z,5.50
2022-08-25T16:34:24.527Z,6.03
2022-08-25T16:36:53.347Z,5.47
2022-08-25T16:39:22.199Z,5.83
2022-08-25T16:41:52.240Z,6.13
2022-08-25T16:44:22.844Z,6.10
2022-08-25T16:46:54.290Z,6.00
2022-08-25T16:49:24.166Z,6.00
2022-08-25T16:51:57.096Z,6.00
2022-08-25T16:54:44.871Z,6.57
2022-08-25T16:57:12.729Z,6.67
2022-08-25T16:59:39.879Z,6.50
2022-08-25T17:02:07.368Z,7.77
2022-08-25T17:04:34.520Z,6.83
2022-08-25T17:07:02.105Z,5.90
2022-08-25T17:09:29.908Z,6.87
2022-08-25T17:11:57.395Z,6.67
2022-08-25T17:14:24.776Z,9.50
2022-08-25T17:16:55.192Z,7.40
2022-08-25T17:19:24.982Z,6.43
2022-08-25T17:21:54.521Z,5.93
2022-08-25T17:24:29.192Z,7.17
2022-08-25T17:26:57.529Z,7.10
2022-08-25T17:29:24.537Z,7.53
2022-08-25T17:31:51.923Z,7.40
2022-08-25T17:34:23.189Z,7.80
2022-08-25T17:36:51.764Z,7.23
2022-08-25T17:39:22.283Z,6.90
2022-08-25T17:41:50.649Z,6.70
2022-08-25T17:44:18.745Z,6.80
2022-08-25T17:46:47.998Z,6.57
2022-08-25T17:49:17.214Z,7.33
2022-08-25T17:51:44.365Z,7.53
2022-08-25T17:54:13.244Z,7.97
2022-08-25T17:56:40.856Z,7.40
2022-08-25T17:59:08.060Z,8.57
2022-08-25T18:01:40.281Z,6.93
2022-08-25T18:04:17.597Z,8.60
2022-08-25T18:06:49.609Z,8.47
2022-08-25T18:09:17.820Z,7.43
2022-08-25T18:11:45.676Z,8.40
2022-08-25T18:14:14.473Z,7.57
2022-08-25T18:16:42.261Z,7.03
2022-08-25T18:19:11.001Z,7.33
2022-08-25T18:21:38.756Z,7.97
2022-08-25T18:24:08.074Z,7.30
2022-08-25T18:26:35.630Z,8.23
2022-08-25T18:29:03.772Z,7.57
2022-08-25T18:31:30.985Z,8.33
2022-08-25T18:33:59.405Z,7.27
2022-08-25T18:36:26.611Z,9.17
2022-08-25T18:39:13.504Z,8.77
2022-08-25T18:41:42.679Z,9.53
2022-08-25T18:44:12.240Z,7.73
2022-08-25T18:46:42.824Z,7.50
2022-08-25T18:49:15.873Z,7.50
2022-08-25T18:51:45.055Z,9.07
2022-08-25T18:54:23.133Z,9.13
2022-08-25T18:56:54.654Z,7.97
2022-08-25T18:59:23.822Z,8.50
2022-08-25T19:01:53.261Z,9.23
2022-08-25T19:04:20.924Z,8.03
2022-08-25T19:06:55.708Z,7.97
2022-08-25T19:09:22.973Z,9.50
2022-08-25T19:11:50.110Z,9.23
2022-08-25T19:14:17.162Z,8.97
2022-08-25T19:16:45.779Z,9.63
2022-08-25T19:19:14.373Z,9.40
2022-08-25T19:21:42.336Z,10.97
2022-08-25T19:24:12.664Z,10.20
2022-08-25T19:26:40.192Z,10.17
2022-08-25T19:29:15.294Z,9.10
2022-08-25T19:31:45.093Z,9.70
2022-08-25T19:34:28.131Z,9.20
2022-08-25T19:37:00.679Z,9.03
2022-08-25T19:39:28.974Z,8.53
2022-08-25T19:41:58.520Z,9.90
2022-08-25T19:44:26.476Z,10.93
2022-08-25T19:46:56.293Z,9.00
2022-08-25T19:49:34.316Z,10.40
2022-08-25T19:52:10.504Z,10.80
2022-08-25T19:54:45.843Z,10.67
2022-08-25T19:57:20.778Z,10.30
2022-08-25T19:59:55.538Z,10.80
2022-08-25T20:02:25.792Z,11.20
2022-08-25T20:04:59.971Z,10.97
2022-08-25T20:07:30.430Z,11.33
2022-08-25T20:09:59.597Z,10.77
2022-08-25T20:12:28.497Z,11.90
2022-08-25T20:14:56.503Z,13.57
2022-08-25T20:17:26.364Z,13.63
2022-08-25T20:20:01.189Z,15.20
2022-08-25T20:22:32.734Z,14.60
2022-08-25T20:25:13.410Z,19.80
2022-08-25T20:27:54.111Z,23.17
2022-08-25T20:30:26.100Z,19.70
2022-08-25T20:32:55.483Z,14.50
2022-08-25T20:35:26.492Z,12.17
2022-08-25T20:37:55.888Z,11.03
2022-08-25T20:40:26.488Z,15.50
2022-08-25T20:42:54.959Z,14.20
2022-08-25T20:45:22.965Z,12.97
2022-08-25T20:47:50.578Z,13.47
2022-08-25T20:50:18.882Z,13.20
2022-08-25T20:52:46.193Z,12.77
2022-08-25T20:55:17.573Z,12.30
2022-08-25T20:57:46.646Z,13.80
2022-08-25T21:00:15.357Z,12.23
2022-08-25T21:02:43.496Z,15.73
2022-08-25T21:05:10.587Z,12.23
2022-08-25T21:07:37.788Z,13.17
2022-08-25T21:10:14.425Z,13.20
2022-08-25T21:12:42.564Z,13.50
2022-08-25T21:15:11.304Z,15.00
2022-08-25T21:17:39.461Z,13.10
2022-08-25T21:20:08.791Z,11.87
2022-08-25T21:22:37.854Z,12.33
2022-08-25T21:25:05.905Z,13.50
2022-08-25T21:27:33.867Z,14.50
2022-08-25T21:30:01.131Z,11.63
2022-08-25T21:32:28.284Z,12.37
2022-08-25T21:34:56.406Z,12.27
2022-08-25T21:37:23.971Z,10.73
2022-08-25T21:39:52.054Z,11.47
2022-08-25T21:42:22.382Z,11.63
2022-08-25T21:44:50.659Z,13.20
2022-08-25T21:47:46.012Z,11.17
2022-08-25T21:50:13.920Z,11.43
2022-08-25T21:52:42.435Z,13.00
2022-08-25T21:55:16.012Z,11.40
2022-08-25T21:57:43.977Z,12.57
2022-08-25T22:00:13.489Z,11.53
2022-08-25T22:02:43.894Z,12.93
2022-08-25T22:05:11.993Z,12.60
2022-08-25T22:07:44.105Z,13.03
2022-08-25T22:10:16.652Z,11.60
2022-08-25T22:12:47.217Z,11.40
2022-08-25T22:15:15.633Z,11.37
2022-08-25T22:17:42.748Z,11.37
2022-08-25T22:20:10.958Z,13.13
2022-08-25T22:22:38.192Z,12.70
2022-08-25T22:25:05.986Z,11.70
2022-08-25T22:27:36.026Z,11.57
2022-08-25T22:30:06.670Z,11.77
2022-08-25T22:32:33.985Z,10.50
2022-08-25T22:35:01.587Z,11.03
2022-08-25T22:37:28.755Z,11.23
2022-08-25T22:39:57.720Z,11.37
2022-08-25T22:42:25.498Z,11.00
2022-08-25T22:44:54.022Z,11.63
2022-08-25T22:47:21.244Z,11.30
2022-08-25T22:49:49.604Z,11.97
2022-08-25T22:52:19.432Z,10.40
2022-08-25T22:54:46.634Z,10.77
2022-08-25T22:57:14.016Z,10.40
2022-08-25T22:59:41.218Z,9.60
2022-08-25T23:02:08.868Z,11.37
2022-08-25T23:04:41.149Z,9.43
2022-08-25T23:07:11.849Z,9.83
2022-08-25T23:09:39.123Z,9.90
2022-08-25T23:12:06.803Z,9.40
2022-08-25T23:14:42.051Z,9.10
2022-08-25T23:17:12.246Z,9.60
2022-08-25T23:19:39.378Z,9.87
2022-08-25T23:22:09.557Z,9.47
2022-08-25T23:24:47.527Z,10.30
2022-08-25T23:27:19.124Z,9.40
2022-08-25T23:29:49.967Z,9.57
2022-08-25T23:32:18.447Z,10.00
2022-08-25T23:34:46.583Z,10.30
2022-08-25T23:37:15.110Z,9.00
2022-08-25T23:39:45.662Z,9.33
2022-08-25T23:42:12.944Z,9.60
2022-08-25T23:44:40.651Z,9.83
2022-08-25T23:47:07.910Z,9.27
2022-08-25T23:49:39.943Z,9.13
2022-08-25T23:52:07.247Z,10.60
2022-08-25T23:54:34.434Z,9.67
2022-08-25T23:57:02.345Z,8.80
2022-08-25T23:59:29.426Z,9.00
